Flight Track Log - Related Links

Times and Time Zones

All times are in EST time to prevent confusion due to time zone crossing. See the QXE2087 flight status page for this flight to view local times or setup timezone preferences in your user account.

Time Position Orientation Groundspeed Altitude Reporting Facility
EST Latitude Longitude Course Direction KTS MPH feet Rate Location/Type
Tue 09:21:00 AM 46.1949 -118.8077 286° West  Level FlightAware Approximate
Tue 09:22:00 AM 46.2171 -118.9130 287° West  Level FlightAware Approximate
Tue 09:23:00 AM 46.2397 -119.0183 287° West  Level FlightAware Approximate
Tue 09:24:00 AM 46.2562 -119.1247 290° West  Level FlightAware Approximate
Tue 09:25:00 AM 46.2822 -119.2283 290° West  Level FlightAware Approximate
Tue 09:26:00 AM 46.3082 -119.3321 290° West  Level FlightAware Approximate
Tue 09:27:00 AM 46.3333 -119.4361 270° West  Level FlightAware Approximate
Tue 09:28:00 AM 46.3500 -119.5423 270° West  Level FlightAware Approximate
Tue 09:29:00 AM 46.3742 -119.6466 290° West  Level FlightAware Approximate
Tue 09:30:00 AM 46.4022 -119.7493 293° West  Level FlightAware Approximate
Tue 09:31:00 AM 46.4334 -119.8502 284° West  Level FlightAware Approximate
Tue 09:32:00 AM 46.4518 -119.9575 290° West  Level FlightAware Approximate
Tue 09:33:00 AM 46.4772 -120.0618 289° West  Level FlightAware Approximate
Tue 09:34:00 AM 46.5025 -120.1663 289° West  Level FlightAware Approximate
Tue 09:35:00 AM 46.5277 -120.2708 289° West  Level FlightAware Approximate
Tue 09:36:00 AM 46.5528 -120.3754 289° West  Level FlightAware Approximate
Tue 09:37:00 AM 46.5830 -120.4769 299° West  Level FlightAware Approximate
Tue 09:38:00 AM 46.6208 -120.5729 314° West  Level FlightAware Approximate
Tue 09:39:00 AM 46.6682 -120.6590 302° West  Level FlightAware Approximate
Tue 09:40:00 AM 46.7095 -120.7524 306° West  Level FlightAware Approximate
Tue 09:41:00 AM 46.7555 -120.8314 299° West  Level FlightAware Approximate
Tue 09:42:00 AM 46.7898 -120.9229 299° West  Level FlightAware Approximate
Tue 09:43:00 AM 46.8297 -121.0093 306° West  Level FlightAware Approximate
Tue 09:44:00 AM 46.8702 -121.0952 303° West  Level FlightAware Approximate
Tue 09:45:00 AM 46.9092 -121.1828 303° West  Level FlightAware Approximate
Tue 09:46:00 AM 46.9482 -121.2705 303° West  Level FlightAware Approximate
Tue 09:47:00 AM 46.9887 -121.3500 North  Level FlightAware Approximate
Tue 09:48:00 AM 47.0321 -121.4221 303° West  Level FlightAware Approximate
Tue 09:49:00 AM 47.0690 -121.5092 290° West  Level FlightAware Approximate
Tue 09:50:00 AM 47.1016 -121.5985 310° West  Level FlightAware Approximate
Tue 09:51:00 AM 47.1417 -121.6688 310° West  Level FlightAware Approximate
Tue 09:52:00 AM 47.1727 -121.7453 306° West  Level FlightAware Approximate
Tue 09:53:00 AM 47.2135 -121.8135 326° Northwest  Level FlightAware Approximate
Tue 09:54:00 AM 47.2465 -121.8910 301° West  Level FlightAware Approximate
Tue 09:55:00 AM 47.2781 -121.9703 301° West  Level FlightAware Approximate
Tue 09:56:00 AM 47.3101 -122.0485 315° West  Level FlightAware Approximate
Tue 09:57:00 AM 47.3463 -122.1222 296° West  Level FlightAware Approximate
Tue 09:58:00 AM 47.3821 -122.1975 306° West  Level FlightAware Approximate
Tue 09:59:00 AM 47.4192 -122.2718 306° West  Level FlightAware Approximate
Tue 10:00:00 AM 47.4333 -122.3000 306° West  Level FlightAware Approximate
Tue 10:01:00 AM 47.4499 -122.3118 306° West  Level Estimated
Tue 10:02:00 AM 47.4499 -122.3118 306° West  Level Estimated
Tue 10:03:00 AM 47.4499 -122.3118 306° West  Level Estimated
Tue 10:04:00 AM 47.4499 -122.3118 306° West  Level Estimated
Tue 10:05:00 AM 47.4499 -122.3118 306° West  Level Estimated
Tue 10:06:00 AM 47.4499 -122.3118 306° West  Level Estimated
Tue 10:07:00 AM 47.4499 -122.3118 306° West  Level Estimated
Tue 10:08:00 AM 47.4499 -122.3118 183° South  Level Estimated
Tue 10:09:00 AM 47.4499 -122.3118 183° South  Level Estimated
Tue 10:10:00 AM 47.4499 -122.3118 183° South  Level Estimated
Tue 10:11:00 AM 47.4499 -122.3118 183° South  Level Estimated
Tue 10:12:00 AM 47.4499 -122.3118 183° South  Level Estimated
Tue 10:13:00 AM 47.4499 -122.3118 180° South  Level Estimated
Tue 10:14:00 AM 47.4499 -122.3118 180° South  Level Estimated
Tue 10:15:00 AM 47.4499 -122.3118 180° South  Level Estimated
Tue 10:16:00 AM 47.4499 -122.3118 180° South  Level Estimated
Tue 10:17:00 AM 47.4499 -122.3118 180° South  Level Estimated
Tue 10:18:00 AM 47.4499 -122.3118 180° South  Level Estimated
Tue 10:19:00 AM 47.4499 -122.3118 180° South  Level Estimated
Tue 10:20:00 AM 47.4499 -122.3118 180° South  Level Estimated
Tue 10:21:00 AM 47.4499 -122.3118 180° South  Level Estimated
Tue 10:22:00 AM 47.4499 -122.3118 180° South  Level Estimated
Tue 10:23:00 AM 47.4499 -122.3118 180° South  Level Estimated
Tue 10:24:00 AM 47.4499 -122.3118 180° South  Level Estimated
Tue 10:25:00 AM 47.4499 -122.3118 180° South  Level Estimated
Tue 10:26:00 AM 47.4499 -122.3118 180° South  Level Estimated
Tue 10:27:00 AM 47.4499 -122.3118 180° South  Level Estimated
Tue 10:28:00 AM 47.4499 -122.3118 180° South  Level Estimated
Tue 10:29:00 AM 47.4499 -122.3118 180° South  Level Estimated
Tue 10:30:00 AM 47.4499 -122.3118 180° South  Level Estimated
Tue 10:31:00 AM 47.4499 -122.3118 180° South  Level Estimated

Login

Don't have an account? Register now (free) for customized features, flight alerts, and more!